sensor_id;sensor_type;location;lat;lon;timestamp;pressure;altitude;pressure_sealevel;temperature;humidity
72560;BME280;62987;52.382;9.752;2023-11-18T00:02:57;101722.28;;;5.80;100.00
72560;BME280;62987;52.382;9.752;2023-11-18T00:08:40;101712.63;;;5.73;100.00
72560;BME280;62987;52.382;9.752;2023-11-18T00:11:08;101705.56;;;5.81;100.00
72560;BME280;62987;52.382;9.752;2023-11-18T00:13:38;101714.34;;;5.89;100.00
72560;BME280;62987;52.382;9.752;2023-11-18T00:16:07;101722.22;;;5.94;100.00
72560;BME280;62987;52.382;9.752;2023-11-18T00:18:39;101721.38;;;5.83;100.00
72560;BME280;62987;52.382;9.752;2023-11-18T00:21:08;101724.88;;;5.91;100.00
72560;BME280;62987;52.382;9.752;2023-11-18T00:23:41;101712.59;;;5.78;100.00
72560;BME280;62987;52.382;9.752;2023-11-18T00:26:16;101718.75;;;5.80;100.00
72560;BME280;62987;52.382;9.752;2023-11-18T00:28:49;101717.91;;;5.76;100.00
72560;BME280;62987;52.382;9.752;2023-11-18T00:31:17;101697.78;;;5.52;100.00
72560;BME280;62987;52.382;9.752;2023-11-18T00:33:45;101712.78;;;5.49;100.00
72560;BME280;62987;52.382;9.752;2023-11-18T00:36:14;101715.41;;;5.49;100.00
72560;BME280;62987;52.382;9.752;2023-11-18T00:38:42;101707.53;;;5.38;100.00
72560;BME280;62987;52.382;9.752;2023-11-18T00:41:11;101704.97;;;5.28;100.00
72560;BME280;62987;52.382;9.752;2023-11-18T00:43:41;101697.06;;;5.21;100.00
72560;BME280;62987;52.382;9.752;2023-11-18T00:46:10;101711.13;;;5.23;100.00
72560;BME280;62987;52.382;9.752;2023-11-18T00:48:38;101719.94;;;5.16;100.00
72560;BME280;62987;52.382;9.752;2023-11-18T00:51:09;101727.88;;;5.07;100.00
72560;BME280;62987;52.382;9.752;2023-11-18T00:53:38;101722.63;;;5.04;100.00
72560;BME280;62987;52.382;9.752;2023-11-18T00:56:06;101734.06;;;5.03;100.00
72560;BME280;62987;52.382;9.752;2023-11-18T00:58:37;101709.50;;;4.80;100.00
72560;BME280;62987;52.382;9.752;2023-11-18T01:01:09;101733.13;;;5.21;100.00
72560;BME280;62987;52.382;9.752;2023-11-18T01:03:37;101743.63;;;5.27;100.00
72560;BME280;62987;52.382;9.752;2023-11-18T01:06:06;101731.31;;;5.29;100.00
72560;BME280;62987;52.382;9.752;2023-11-18T01:08:35;101738.34;;;5.27;100.00
72560;BME280;62987;52.382;9.752;2023-11-18T01:11:04;101758.59;;;5.23;100.00
72560;BME280;62987;52.382;9.752;2023-11-18T01:13:32;101754.22;;;5.15;100.00
72560;BME280;62987;52.382;9.752;2023-11-18T01:18:18;101751.63;;;5.04;100.00
72560;BME280;62987;52.382;9.752;2023-11-18T01:20:46;101753.38;;;4.99;100.00
72560;BME280;62987;52.382;9.752;2023-11-18T01:24:31;101783.25;;;5.09;100.00
72560;BME280;62987;52.382;9.752;2023-11-18T01:29:57;101676.16;;;4.64;100.00
72560;BME280;62987;52.382;9.752;2023-11-18T01:33:04;101785.84;;;5.29;100.00
72560;BME280;62987;52.382;9.752;2023-11-18T01:38:50;101774.34;;;5.46;100.00
72560;BME280;62987;52.382;9.752;2023-11-18T01:42:48;101781.31;;;5.59;100.00
72560;BME280;62987;52.382;9.752;2023-11-18T01:45:36;101788.25;;;5.77;100.00
72560;BME280;62987;52.382;9.752;2023-11-18T01:48:54;101775.00;;;5.97;100.00
72560;BME280;62987;52.382;9.752;2023-11-18T01:54:23;101774.94;;;6.08;100.00
72560;BME280;62987;52.382;9.752;2023-11-18T01:57:46;101787.19;;;6.19;100.00
72560;BME280;62987;52.382;9.752;2023-11-18T02:00:53;101788.09;;;6.14;100.00
72560;BME280;62987;52.382;9.752;2023-11-18T02:04:08;101774.06;;;6.09;100.00
72560;BME280;62987;52.382;9.752;2023-11-18T02:09:24;101754.66;;;6.10;100.00
72560;BME280;62987;52.382;9.752;2023-11-18T02:14:43;101797.63;;;6.40;100.00
72560;BME280;62987;52.382;9.752;2023-11-18T02:17:54;101789.69;;;6.36;100.00
72560;BME280;62987;52.382;9.752;2023-11-18T02:21:02;101789.63;;;6.45;100.00
72560;BME280;62987;52.382;9.752;2023-11-18T02:26:56;101787.59;;;6.80;100.00
72560;BME280;62987;52.382;9.752;2023-11-18T02:30:00;101780.63;;;6.70;100.00
72560;BME280;62987;52.382;9.752;2023-11-18T02:33:13;101794.59;;;6.85;100.00
72560;BME280;62987;52.382;9.752;2023-11-18T02:36:29;101789.38;;;6.78;100.00
72560;BME280;62987;52.382;9.752;2023-11-18T02:43:29;101799.94;;;6.75;100.00
72560;BME280;62987;52.382;9.752;2023-11-18T02:46:44;101802.59;;;6.78;100.00
72560;BME280;62987;52.382;9.752;2023-11-18T02:49:12;101805.19;;;6.81;100.00
72560;BME280;62987;52.382;9.752;2023-11-18T02:55:27;101777.22;;;6.56;100.00
72560;BME280;62987;52.382;9.752;2023-11-18T02:58:30;101787.81;;;6.53;100.00
72560;BME280;62987;52.382;9.752;2023-11-18T03:04:13;101788.75;;;6.48;100.00
72560;BME280;62987;52.382;9.752;2023-11-18T03:07:20;101787.78;;;6.56;100.00
72560;BME280;62987;52.382;9.752;2023-11-18T03:10:35;101746.50;;;6.43;100.00
72560;BME280;62987;52.382;9.752;2023-11-18T03:16:11;101752.69;;;6.39;100.00
72560;BME280;62987;52.382;9.752;2023-11-18T03:19:30;101777.25;;;6.53;100.00
72560;BME280;62987;52.382;9.752;2023-11-18T03:22:39;101758.81;;;6.46;100.00
72560;BME280;62987;52.382;9.752;2023-11-18T03:25:58;101786.06;;;6.52;100.00
72560;BME280;62987;52.382;9.752;2023-11-18T03:31:26;101793.09;;;6.53;100.00
72560;BME280;62987;52.382;9.752;2023-11-18T03:34:46;101796.59;;;6.58;100.00
72560;BME280;62987;52.382;9.752;2023-11-18T03:56:01;101782.44;;;6.62;100.00
72560;BME280;62987;52.382;9.752;2023-11-18T04:01:27;101793.84;;;6.69;100.00
72560;BME280;62987;52.382;9.752;2023-11-18T04:04:45;101787.63;;;6.74;100.00
72560;BME280;62987;52.382;9.752;2023-11-18T04:07:15;101787.78;;;6.59;100.00
72560;BME280;62987;52.382;9.752;2023-11-18T04:09:43;101768.50;;;6.45;100.00
72560;BME280;62987;52.382;9.752;2023-11-18T04:12:11;101775.53;;;6.46;100.00
72560;BME280;62987;52.382;9.752;2023-11-18T04:14:39;101786.03;;;6.55;100.00
72560;BME280;62987;52.382;9.752;2023-11-18T04:17:08;101776.25;;;6.66;100.00
72560;BME280;62987;52.382;9.752;2023-11-18T04:19:36;101779.94;;;6.46;100.00
72560;BME280;62987;52.382;9.752;2023-11-18T04:22:07;101766.69;;;6.50;100.00
72560;BME280;62987;52.382;9.752;2023-11-18T04:24:37;101773.72;;;6.51;100.00
72560;BME280;62987;52.382;9.752;2023-11-18T04:27:05;101778.97;;;6.60;100.00
72560;BME280;62987;52.382;9.752;2023-11-18T04:29:34;101773.63;;;6.63;100.00
72560;BME280;62987;52.382;9.752;2023-11-18T04:32:04;101781.56;;;6.63;100.00
72560;BME280;62987;52.382;9.752;2023-11-18T04:34:35;101778.91;;;6.62;100.00
72560;BME280;62987;52.382;9.752;2023-11-18T04:37:03;101762.22;;;6.60;100.00
72560;BME280;62987;52.382;9.752;2023-11-18T04:39:34;101766.56;;;6.67;100.00
72560;BME280;62987;52.382;9.752;2023-11-18T04:42:04;101778.13;;;6.52;100.00
72560;BME280;62987;52.382;9.752;2023-11-18T04:44:33;101771.88;;;6.62;100.00
72560;BME280;62987;52.382;9.752;2023-11-18T04:47:02;101761.34;;;6.58;100.00
72560;BME280;62987;52.382;9.752;2023-11-18T04:49:30;101759.50;;;6.67;100.00
72560;BME280;62987;52.382;9.752;2023-11-18T04:51:58;101761.34;;;6.61;100.00
72560;BME280;62987;52.382;9.752;2023-11-18T04:54:27;101750.78;;;6.59;100.00
72560;BME280;62987;52.382;9.752;2023-11-18T04:56:57;101764.69;;;6.76;100.00
72560;BME280;62987;52.382;9.752;2023-11-18T04:59:25;101737.50;;;6.67;100.00
72560;BME280;62987;52.382;9.752;2023-11-18T05:01:53;101756.94;;;6.60;100.00
72560;BME280;62987;52.382;9.752;2023-11-18T05:04:22;101752.47;;;6.65;100.00
72560;BME280;62987;52.382;9.752;2023-11-18T05:06:50;101756.13;;;6.53;100.00
72560;BME280;62987;52.382;9.752;2023-11-18T05:51:38;101706.78;;;6.49;100.00
72560;BME280;62987;52.382;9.752;2023-11-18T05:55:03;101721.72;;;6.56;100.00
72560;BME280;62987;52.382;9.752;2023-11-18T05:58:45;101678.72;;;6.36;100.00
72560;BME280;62987;52.382;9.752;2023-11-18T06:02:03;101717.31;;;6.57;100.00
72560;BME280;62987;52.382;9.752;2023-11-18T06:04:32;101714.00;;;6.35;100.00
72560;BME280;62987;52.382;9.752;2023-11-18T06:07:00;101720.13;;;6.38;100.00
72560;BME280;62987;52.382;9.752;2023-11-18T06:09:29;101714.78;;;6.46;100.00
72560;BME280;62987;52.382;9.752;2023-11-18T06:11:57;101724.56;;;6.32;100.00
72560;BME280;62987;52.382;9.752;2023-11-18T06:14:27;101720.19;;;6.29;100.00
72560;BME280;62987;52.382;9.752;2023-11-18T06:16:55;101722.88;;;6.25;100.00
72560;BME280;62987;52.382;9.752;2023-11-18T06:19:28;101716.75;;;6.21;100.00
72560;BME280;62987;52.382;9.752;2023-11-18T06:21:56;101728.19;;;6.22;100.00
72560;BME280;62987;52.382;9.752;2023-11-18T06:24:24;101705.38;;;6.10;100.00
72560;BME280;62987;52.382;9.752;2023-11-18T06:26:53;101713.31;;;6.09;100.00
72560;BME280;62987;52.382;9.752;2023-11-18T06:29:21;101729.22;;;6.01;100.00
72560;BME280;62987;52.382;9.752;2023-11-18T06:31:50;101735.34;;;6.05;100.00
72560;BME280;62987;52.382;9.752;2023-11-18T06:34:19;101723.06;;;5.97;100.00
72560;BME280;62987;52.382;9.752;2023-11-18T06:36:49;101737.97;;;6.03;100.00
72560;BME280;62987;52.382;9.752;2023-11-18T06:39:18;101745.06;;;5.98;100.00
72560;BME280;62987;52.382;9.752;2023-11-18T06:41:46;101735.38;;;5.98;100.00
72560;BME280;62987;52.382;9.752;2023-11-18T06:44:18;101744.19;;;5.97;100.00
72560;BME280;62987;52.382;9.752;2023-11-18T06:46:50;101755.69;;;5.87;100.00
72560;BME280;62987;52.382;9.752;2023-11-18T06:49:19;101756.53;;;5.92;100.00
72560;BME280;62987;52.382;9.752;2023-11-18T06:51:48;101746.88;;;5.91;100.00
72560;BME280;62987;52.382;9.752;2023-11-18T06:54:18;101754.81;;;5.88;100.00
72560;BME280;62987;52.382;9.752;2023-11-18T06:56:48;101739.91;;;5.72;100.00
72560;BME280;62987;52.382;9.752;2023-11-18T06:59:19;101747.81;;;5.75;100.00
72560;BME280;62987;52.382;9.752;2023-11-18T07:04:34;101760.09;;;5.82;100.00
72560;BME280;62987;52.382;9.752;2023-11-18T07:07:03;101765.38;;;5.79;100.00
72560;BME280;62987;52.382;9.752;2023-11-18T07:09:31;101760.09;;;5.82;100.00
72560;BME280;62987;52.382;9.752;2023-11-18T07:12:03;101764.47;;;5.86;100.00
72560;BME280;62987;52.382;9.752;2023-11-18T07:14:32;101765.38;;;5.79;100.00
72560;BME280;62987;52.382;9.752;2023-11-18T07:17:00;101746.03;;;5.80;100.00
72560;BME280;62987;52.382;9.752;2023-11-18T07:19:28;101758.25;;;5.99;100.00
72560;BME280;62987;52.382;9.752;2023-11-18T07:21:59;101761.69;;;6.11;100.00
72560;BME280;62987;52.382;9.752;2023-11-18T07:24:27;101762.47;;;6.26;100.00
72560;BME280;62987;52.382;9.752;2023-11-18T07:26:56;101765.97;;;6.33;100.00
72560;BME280;62987;52.382;9.752;2023-11-18T07:34:50;101750.09;;;6.34;100.00
72560;BME280;62987;52.382;9.752;2023-11-18T07:41:08;101672.84;;;6.08;100.00
72560;BME280;62987;52.382;9.752;2023-11-18T07:50:59;101767.41;;;6.70;100.00
72560;BME280;62987;52.382;9.752;2023-11-18T07:56:40;101757.44;;;6.97;100.00
72560;BME280;62987;52.382;9.752;2023-11-18T08:00:16;101769.09;;;6.79;100.00
72560;BME280;62987;52.382;9.752;2023-11-18T08:05:40;101767.00;;;7.11;100.00
72560;BME280;62987;52.382;9.752;2023-11-18T08:09:02;101766.88;;;7.20;100.00
72560;BME280;62987;52.382;9.752;2023-11-18T08:14:34;101765.94;;;7.26;100.00
72560;BME280;62987;52.382;9.752;2023-11-18T08:17:03;101748.25;;;7.31;100.00
72560;BME280;62987;52.382;9.752;2023-11-18T08:19:32;101753.25;;;7.52;100.00
72560;BME280;62987;52.382;9.752;2023-11-18T08:22:02;101751.38;;;7.63;100.00
72560;BME280;62987;52.382;9.752;2023-11-18T08:24:31;101743.81;;;7.33;100.00
72560;BME280;62987;52.382;9.752;2023-11-18T08:27:00;101714.09;;;7.13;100.00
72560;BME280;62987;52.382;9.752;2023-11-18T08:29:33;101729.34;;;7.58;100.00
72560;BME280;62987;52.382;9.752;2023-11-18T08:32:03;101727.81;;;7.42;100.00
72560;BME280;62987;52.382;9.752;2023-11-18T08:34:41;101727.78;;;7.45;100.00
72560;BME280;62987;52.382;9.752;2023-11-18T08:37:20;101702.84;;;7.65;100.00
72560;BME280;62987;52.382;9.752;2023-11-18T08:40:12;101705.75;;;7.45;100.00
72560;BME280;62987;52.382;9.752;2023-11-18T08:43:04;101717.78;;;7.66;100.00
72560;BME280;62987;52.382;9.752;2023-11-18T08:46:01;101690.44;;;7.65;100.00
72560;BME280;62987;52.382;9.752;2023-11-18T08:49:04;101720.03;;;7.96;100.00
72560;BME280;62987;52.382;9.752;2023-11-18T08:51:44;101728.50;;;8.18;100.00
72560;BME280;62987;52.382;9.752;2023-11-18T08:54:18;101686.59;;;7.87;100.00
72560;BME280;62987;52.382;9.752;2023-11-18T08:57:04;101732.75;;;8.29;100.00
72560;BME280;62987;52.382;9.752;2023-11-18T08:59:53;101746.88;;;8.31;100.00
72560;BME280;62987;52.382;9.752;2023-11-18T09:02:27;101746.44;;;8.00;100.00
72560;BME280;62987;52.382;9.752;2023-11-18T09:05:05;101747.91;;;8.20;100.00
72560;BME280;62987;52.382;9.752;2023-11-18T09:07:39;101741.09;;;8.03;100.00
72560;BME280;62987;52.382;9.752;2023-11-18T09:10:10;101738.91;;;8.33;100.00
72560;BME280;62987;52.382;9.752;2023-11-18T09:12:39;101733.56;;;8.36;100.00
72560;BME280;62987;52.382;9.752;2023-11-18T09:15:12;101735.06;;;8.51;100.00
72560;BME280;62987;52.382;9.752;2023-11-18T09:17:51;101729.88;;;8.45;100.00
72560;BME280;62987;52.382;9.752;2023-11-18T09:20:20;101726.97;;;8.60;100.00
72560;BME280;62987;52.382;9.752;2023-11-18T09:22:49;101710.47;;;8.43;100.00
72560;BME280;62987;52.382;9.752;2023-11-18T09:25:22;101718.38;;;8.46;100.00
72560;BME280;62987;52.382;9.752;2023-11-18T09:27:51;101714.22;;;8.80;100.00
72560;BME280;62987;52.382;9.752;2023-11-18T09:30:19;101720.53;;;8.73;100.00
72560;BME280;62987;52.382;9.752;2023-11-18T09:32:52;101720.22;;;8.90;100.00
72560;BME280;62987;52.382;9.752;2023-11-18T09:35:21;101708.97;;;8.77;100.00
72560;BME280;62987;52.382;9.752;2023-11-18T09:37:50;101707.75;;;8.46;100.00
72560;BME280;62987;52.382;9.752;2023-11-18T09:40:21;101704.25;;;8.43;100.00
72560;BME280;62987;52.382;9.752;2023-11-18T09:42:54;101710.38;;;8.47;100.00
72560;BME280;62987;52.382;9.752;2023-11-18T09:47:38;101715.38;;;8.64;100.00
72560;BME280;62987;52.382;9.752;2023-11-18T09:51:28;101708.56;;;8.98;100.00
72560;BME280;62987;52.382;9.752;2023-11-18T09:54:03;101709.50;;;9.39;100.00
72560;BME280;62987;52.382;9.752;2023-11-18T09:56:39;101718.56;;;9.29;100.00
72560;BME280;62987;52.382;9.752;2023-11-18T09:59:17;101718.03;;;9.53;100.00
72560;BME280;62987;52.382;9.752;2023-11-18T10:01:50;101719.50;;;10.06;100.00
72560;BME280;62987;52.382;9.752;2023-11-18T10:04:21;101682.38;;;12.97;100.00
72560;BME280;62987;52.382;9.752;2023-11-18T10:06:56;101660.19;;;15.70;100.00
72560;BME280;62987;52.382;9.752;2023-11-18T10:09:26;101645.28;;;17.52;98.15
72560;BME280;62987;52.382;9.752;2023-11-18T10:11:57;101639.63;;;17.74;94.20
72560;BME280;62987;52.382;9.752;2023-11-18T10:14:33;101623.94;;;18.12;88.61
72560;BME280;62987;52.382;9.752;2023-11-18T10:17:05;101629.88;;;17.87;93.01
72560;BME280;62987;52.382;9.752;2023-11-18T10:19:52;101633.88;;;18.71;84.31
72560;BME280;62987;52.382;9.752;2023-11-18T10:22:25;101629.75;;;19.92;78.19
72560;BME280;62987;52.382;9.752;2023-11-18T10:24:56;101627.69;;;20.22;62.95
72560;BME280;62987;52.382;9.752;2023-11-18T10:27:25;101637.53;;;18.55;76.15
72560;BME280;62987;52.382;9.752;2023-11-18T10:30:51;101623.31;;;19.11;64.57
72560;BME280;62987;52.382;9.752;2023-11-18T10:33:20;101621.69;;;17.42;73.65
72560;BME280;62987;52.382;9.752;2023-11-18T10:35:52;101630.03;;;17.84;72.13
72560;BME280;62987;52.382;9.752;2023-11-18T10:38:23;101625.97;;;17.13;80.31
72560;BME280;62987;52.382;9.752;2023-11-18T10:40:54;101621.16;;;15.82;91.72
72560;BME280;62987;52.382;9.752;2023-11-18T10:43:23;101615.97;;;14.01;100.00
72560;BME280;62987;52.382;9.752;2023-11-18T10:46:04;101623.09;;;13.80;100.00
72560;BME280;62987;52.382;9.752;2023-11-18T10:48:43;101618.69;;;13.09;100.00
72560;BME280;62987;52.382;9.752;2023-11-18T10:51:15;101607.22;;;11.82;100.00
72560;BME280;62987;52.382;9.752;2023-11-18T10:53:47;101612.47;;;11.85;100.00
72560;BME280;62987;52.382;9.752;2023-11-18T10:56:25;101598.38;;;11.24;100.00
72560;BME280;62987;52.382;9.752;2023-11-18T10:58:56;101594.00;;;10.92;100.00
72560;BME280;62987;52.382;9.752;2023-11-18T11:01:30;101578.22;;;11.15;100.00
72560;BME280;62987;52.382;9.752;2023-11-18T11:04:00;101576.78;;;11.33;100.00
72560;BME280;62987;52.382;9.752;2023-11-18T11:06:33;101575.25;;;11.26;100.00
72560;BME280;62987;52.382;9.752;2023-11-18T11:09:01;101572.69;;;10.63;100.00
72560;BME280;62987;52.382;9.752;2023-11-18T11:11:39;101563.25;;;10.51;100.00
72560;BME280;62987;52.382;9.752;2023-11-18T11:14:09;101565.91;;;10.51;100.00
72560;BME280;62987;52.382;9.752;2023-11-18T11:16:42;101558.91;;;10.79;100.00
72560;BME280;62987;52.382;9.752;2023-11-18T11:19:16;101541.47;;;10.69;100.00
72560;BME280;62987;52.382;9.752;2023-11-18T11:21:53;101545.13;;;10.65;100.00
72560;BME280;62987;52.382;9.752;2023-11-18T11:24:31;101546.78;;;10.99;100.00
72560;BME280;62987;52.382;9.752;2023-11-18T11:27:09;101538.13;;;10.63;100.00
72560;BME280;62987;52.382;9.752;2023-11-18T11:29:54;101547.63;;;10.70;100.00
72560;BME280;62987;52.382;9.752;2023-11-18T11:32:29;101548.25;;;10.79;100.00
72560;BME280;62987;52.382;9.752;2023-11-18T11:35:01;101538.97;;;10.63;100.00
72560;BME280;62987;52.382;9.752;2023-11-18T11:37:35;101540.28;;;10.79;100.00
72560;BME280;62987;52.382;9.752;2023-11-18T11:40:07;101530.38;;;10.54;100.00
72560;BME280;62987;52.382;9.752;2023-11-18T11:42:38;101541.13;;;10.18;100.00
72560;BME280;62987;52.382;9.752;2023-11-18T11:45:08;101543.91;;;10.46;100.00
72560;BME280;62987;52.382;9.752;2023-11-18T11:47:50;101538.94;;;10.34;100.00
72560;BME280;62987;52.382;9.752;2023-11-18T11:50:22;101541.41;;;10.40;100.00
72560;BME280;62987;52.382;9.752;2023-11-18T11:53:03;101537.72;;;10.12;100.00
72560;BME280;62987;52.382;9.752;2023-11-18T11:55:38;101544.00;;;10.09;100.00
72560;BME280;62987;52.382;9.752;2023-11-18T11:58:25;101508.56;;;10.09;100.00
72560;BME280;62987;52.382;9.752;2023-11-18T12:00:54;101496.72;;;9.88;100.00
72560;BME280;62987;52.382;9.752;2023-11-18T12:03:24;101492.47;;;9.82;100.00
72560;BME280;62987;52.382;9.752;2023-11-18T12:05:55;101504.41;;;9.98;100.00
72560;BME280;62987;52.382;9.752;2023-11-18T12:08:41;101486.31;;;9.80;100.00
72560;BME280;62987;52.382;9.752;2023-11-18T12:11:12;101468.44;;;9.85;100.00
72560;BME280;62987;52.382;9.752;2023-11-18T12:13:59;101457.19;;;10.08;100.00
72560;BME280;62987;52.382;9.752;2023-11-18T12:16:58;101508.41;;;10.15;100.00
72560;BME280;62987;52.382;9.752;2023-11-18T12:19:34;101497.44;;;9.94;100.00
72560;BME280;62987;52.382;9.752;2023-11-18T12:22:12;101496.19;;;9.75;100.00
72560;BME280;62987;52.382;9.752;2023-11-18T12:24:45;101488.09;;;9.80;100.00
72560;BME280;62987;52.382;9.752;2023-11-18T12:27:43;101486.56;;;9.71;100.00
72560;BME280;62987;52.382;9.752;2023-11-18T12:30:38;101486.63;;;9.68;100.00
72560;BME280;62987;52.382;9.752;2023-11-18T12:33:11;101488.16;;;9.43;100.00
72560;BME280;62987;52.382;9.752;2023-11-18T12:42:03;101483.03;;;9.71;100.00
72560;BME280;62987;52.382;9.752;2023-11-18T12:44:42;101492.59;;;9.78;100.00
72560;BME280;62987;52.382;9.752;2023-11-18T12:47:20;101485.56;;;9.75;100.00
72560;BME280;62987;52.382;9.752;2023-11-18T12:49:56;101464.13;;;9.13;100.00
72560;BME280;62987;52.382;9.752;2023-11-18T12:52:27;101452.78;;;9.41;100.00
72560;BME280;62987;52.382;9.752;2023-11-18T12:54:57;101466.28;;;9.67;100.00
72560;BME280;62987;52.382;9.752;2023-11-18T12:57:27;101463.72;;;9.64;100.00
72560;BME280;62987;52.382;9.752;2023-11-18T12:59:59;101462.03;;;9.60;100.00
72560;BME280;62987;52.382;9.752;2023-11-18T13:02:31;101452.03;;;9.36;100.00
72560;BME280;62987;52.382;9.752;2023-11-18T13:05:04;101467.31;;;9.61;100.00
72560;BME280;62987;52.382;9.752;2023-11-18T13:07:36;101465.84;;;9.50;100.00
72560;BME280;62987;52.382;9.752;2023-11-18T13:10:08;101457.50;;;9.30;100.00
72560;BME280;62987;52.382;9.752;2023-11-18T13:12:36;101442.28;;;9.38;100.00
72560;BME280;62987;52.382;9.752;2023-11-18T13:15:05;101441.31;;;9.40;100.00
72560;BME280;62987;52.382;9.752;2023-11-18T13:17:35;101451.31;;;9.29;100.00
72560;BME280;62987;52.382;9.752;2023-11-18T13:20:12;101459.25;;;9.31;100.00
72560;BME280;62987;52.382;9.752;2023-11-18T13:22:43;101444.44;;;9.20;100.00
72560;BME280;62987;52.382;9.752;2023-11-18T13:25:16;101451.50;;;9.21;100.00
72560;BME280;62987;52.382;9.752;2023-11-18T13:27:45;101447.06;;;9.22;100.00
72560;BME280;62987;52.382;9.752;2023-11-18T13:30:45;101438.94;;;9.30;100.00
72560;BME280;62987;52.382;9.752;2023-11-18T13:33:13;101437.56;;;9.13;100.00
72560;BME280;62987;52.382;9.752;2023-11-18T13:35:42;101442.88;;;9.13;100.00
72560;BME280;62987;52.382;9.752;2023-11-18T13:38:11;101430.13;;;9.28;100.00
72560;BME280;62987;52.382;9.752;2023-11-18T13:40:44;101436.44;;;9.23;100.00
72560;BME280;62987;52.382;9.752;2023-11-18T13:43:14;101428.19;;;8.99;100.00
72560;BME280;62987;52.382;9.752;2023-11-18T13:45:42;101419.06;;;9.10;100.00
72560;BME280;62987;52.382;9.752;2023-11-18T13:48:12;101392.41;;;9.15;100.00
72560;BME280;62987;52.382;9.752;2023-11-18T13:50:41;101404.13;;;9.06;100.00
72560;BME280;62987;52.382;9.752;2023-11-18T13:53:10;101406.28;;;9.26;100.00
72560;BME280;62987;52.382;9.752;2023-11-18T13:55:40;101403.97;;;9.12;100.00
72560;BME280;62987;52.382;9.752;2023-11-18T13:58:09;101395.03;;;9.16;100.00
72560;BME280;62987;52.382;9.752;2023-11-18T14:00:39;101385.75;;;8.99;100.00
72560;BME280;62987;52.382;9.752;2023-11-18T14:03:09;101385.16;;;8.86;100.00
72560;BME280;62987;52.382;9.752;2023-11-18T14:05:40;101365.41;;;8.99;100.00
72560;BME280;62987;52.382;9.752;2023-11-18T14:08:17;101359.97;;;9.04;100.00
72560;BME280;62987;52.382;9.752;2023-11-18T14:10:46;101360.16;;;8.96;100.00
72560;BME280;62987;52.382;9.752;2023-11-18T14:13:29;101358.09;;;8.72;100.00
72560;BME280;62987;52.382;9.752;2023-11-18T14:15:58;101333.44;;;9.04;100.00
72560;BME280;62987;52.382;9.752;2023-11-18T14:18:26;101324.03;;;8.91;100.00
72560;BME280;62987;52.382;9.752;2023-11-18T14:20:57;101332.19;;;8.83;100.00
72560;BME280;62987;52.382;9.752;2023-11-18T14:23:27;101309.38;;;8.76;100.00
72560;BME280;62987;52.382;9.752;2023-11-18T14:25:56;101330.28;;;8.88;100.00
72560;BME280;62987;52.382;9.752;2023-11-18T14:28:45;101316.66;;;8.68;100.00
72560;BME280;62987;52.382;9.752;2023-11-18T14:31:13;101337.25;;;8.94;100.00
72560;BME280;62987;52.382;9.752;2023-11-18T14:33:42;101332.34;;;8.77;100.00
72560;BME280;62987;52.382;9.752;2023-11-18T14:36:10;101318.13;;;8.81;100.00
72560;BME280;62987;52.382;9.752;2023-11-18T14:38:39;101322.47;;;8.82;100.00
